createdAt,value
2024-04-23T00:00:23.574Z,88.62
2024-04-23T00:00:54.336Z,88.52
2024-04-23T00:01:25.130Z,88.69
2024-04-23T00:01:56.476Z,88.58
2024-04-23T00:02:27.250Z,88.94
2024-04-23T00:02:58.022Z,89.01
2024-04-23T00:03:29.217Z,88.81
2024-04-23T00:03:59.999Z,88.77
2024-04-23T00:04:30.898Z,88.52
2024-04-23T00:05:01.703Z,88.67
2024-04-23T00:05:32.487Z,88.78
2024-04-23T00:06:03.252Z,88.35
2024-04-23T00:06:33.996Z,88.34
2024-04-23T00:07:04.700Z,88.23
2024-04-23T00:07:35.469Z,88.30
2024-04-23T00:08:06.537Z,87.76
2024-04-23T00:08:37.318Z,87.73
2024-04-23T00:09:08.220Z,88.13
2024-04-23T00:09:38.962Z,88.12
2024-04-23T00:10:09.670Z,88.41
2024-04-23T00:10:40.427Z,88.14
2024-04-23T00:11:11.364Z,88.19
2024-04-23T00:11:42.192Z,88.00
2024-04-23T00:12:12.910Z,88.19
2024-04-23T00:12:43.630Z,87.85
2024-04-23T00:13:14.356Z,88.10
2024-04-23T00:13:45.128Z,88.13
2024-04-23T00:14:15.884Z,88.50
2024-04-23T00:14:46.595Z,88.05
2024-04-23T00:15:17.303Z,88.09
2024-04-23T00:15:48.036Z,88.03
2024-04-23T00:16:18.750Z,87.12
2024-04-23T00:17:06.353Z,87.61
2024-04-23T00:17:37.183Z,87.94
2024-04-23T00:18:08.061Z,87.74
2024-04-23T00:18:39.055Z,88.25
2024-04-23T00:19:09.810Z,87.96
2024-04-23T00:19:40.551Z,87.73
2024-04-23T00:20:11.308Z,87.54
2024-04-23T00:20:42.037Z,87.81
2024-04-23T00:21:12.763Z,87.39
2024-04-23T00:21:43.490Z,87.57
2024-04-23T00:22:14.206Z,87.54
2024-04-23T00:22:45.033Z,87.49
2024-04-23T00:23:15.759Z,87.44
2024-04-23T00:23:46.488Z,87.14
2024-04-23T00:24:17.347Z,87.42
2024-04-23T00:24:48.098Z,87.48
2024-04-23T00:25:18.815Z,87.76
2024-04-23T00:25:49.554Z,87.29
2024-04-23T00:26:20.295Z,87.82
2024-04-23T00:27:09.009Z,87.33
2024-04-23T00:27:39.731Z,87.09
2024-04-23T00:28:10.578Z,87.16
2024-04-23T00:28:41.359Z,87.75
2024-04-23T00:29:12.072Z,87.53
2024-04-23T00:29:42.794Z,87.45
2024-04-23T00:30:13.522Z,87.74
2024-04-23T00:30:44.241Z,87.34
2024-04-23T00:31:14.952Z,87.59
2024-04-23T00:31:48.557Z,87.25
2024-04-23T00:32:19.444Z,87.48
2024-04-23T00:32:50.272Z,86.86
2024-04-23T00:33:21.030Z,87.23
2024-04-23T00:33:51.772Z,87.05
2024-04-23T00:34:22.501Z,86.93
2024-04-23T00:34:53.232Z,86.89
2024-04-23T00:35:23.998Z,87.26
2024-04-23T00:35:54.709Z,87.12
2024-04-23T00:36:25.416Z,87.42
2024-04-23T00:36:58.943Z,87.28
2024-04-23T00:37:29.804Z,87.39
2024-04-23T00:38:01.131Z,87.29
2024-04-23T00:38:31.882Z,87.15
2024-04-23T00:39:02.629Z,87.14
2024-04-23T00:39:33.341Z,86.95
2024-04-23T00:40:04.115Z,87.08
2024-04-23T00:40:35.332Z,87.13
2024-04-23T00:41:06.165Z,87.19
2024-04-23T00:41:39.761Z,87.09
2024-04-23T00:42:10.630Z,87.38
2024-04-23T00:42:41.370Z,87.30
2024-04-23T00:43:12.133Z,87.11
2024-04-23T00:43:42.959Z,87.55
2024-04-23T00:44:13.787Z,87.13
2024-04-23T00:44:44.535Z,87.19
2024-04-23T00:45:19.257Z,87.30
2024-04-23T00:45:55.881Z,87.27
2024-04-23T00:46:29.438Z,86.83
2024-04-23T00:47:00.362Z,87.23
2024-04-23T00:47:31.212Z,86.99
2024-04-23T00:48:03.668Z,87.36
2024-04-23T00:48:34.562Z,87.44
2024-04-23T00:49:11.206Z,87.44
2024-04-23T00:49:42.668Z,87.32
2024-04-23T00:50:13.456Z,86.99
2024-04-23T00:50:45.007Z,86.64
2024-04-23T00:51:15.732Z,86.91
2024-04-23T00:51:49.502Z,87.27
2024-04-23T00:52:20.511Z,86.72
2024-04-23T00:52:51.309Z,87.06
2024-04-23T00:53:22.688Z,87.03
2024-04-23T00:53:53.819Z,87.06
2024-04-23T00:54:26.590Z,87.22
2024-04-23T00:54:58.121Z,86.79
2024-04-23T00:55:29.517Z,86.54
2024-04-23T00:56:00.349Z,86.83
2024-04-23T00:56:31.331Z,86.63
2024-04-23T00:57:02.309Z,86.65
2024-04-23T00:57:33.368Z,86.68
2024-04-23T00:58:04.522Z,86.59
2024-04-23T00:58:36.268Z,86.90
2024-04-23T00:59:09.572Z,86.46
2024-04-23T00:59:40.369Z,86.58
2024-04-23T01:00:11.624Z,86.53
2024-04-23T01:00:42.355Z,86.75
2024-04-23T01:01:13.272Z,86.48
2024-04-23T01:01:45.195Z,87.00
2024-04-23T01:02:16.269Z,86.42
2024-04-23T01:02:47.488Z,86.53
2024-04-23T01:03:18.299Z,86.45
2024-04-23T01:03:49.275Z,86.06
2024-04-23T01:04:20.455Z,86.53
2024-04-23T01:04:51.373Z,86.29
2024-04-23T01:05:22.120Z,85.93
2024-04-23T01:05:52.846Z,85.98
2024-04-23T01:06:23.573Z,86.22
2024-04-23T01:06:54.320Z,85.63
2024-04-23T01:07:25.042Z,85.28
2024-04-23T01:07:55.909Z,85.97
2024-04-23T01:08:26.770Z,85.79
2024-04-23T01:08:57.770Z,86.14
2024-04-23T01:09:28.525Z,86.38
2024-04-23T01:09:59.504Z,85.81
2024-04-23T01:10:30.486Z,86.53
2024-04-23T01:11:02.687Z,85.83
2024-04-23T01:11:34.599Z,86.10
2024-04-23T01:12:05.498Z,85.88
2024-04-23T01:12:36.213Z,85.35
2024-04-23T01:13:06.960Z,85.88
2024-04-23T01:13:37.718Z,85.63
2024-04-23T01:14:08.461Z,85.42
2024-04-23T01:14:42.441Z,85.20
2024-04-23T01:15:14.706Z,85.71
2024-04-23T01:15:48.055Z,85.23
2024-04-23T01:16:27.449Z,85.03
2024-04-23T01:16:59.074Z,85.26
2024-04-23T01:17:30.783Z,85.34
2024-04-23T01:18:06.227Z,85.26
2024-04-23T01:18:38.520Z,85.08
2024-04-23T01:19:59.338Z,84.57
2024-04-23T01:20:32.225Z,85.13
2024-04-23T01:21:09.069Z,84.81
2024-04-23T01:22:00.827Z,84.42
2024-04-23T01:22:58.748Z,84.44
2024-04-23T01:23:43.734Z,84.73
2024-04-23T01:24:23.010Z,84.90
2024-04-23T01:25:06.096Z,84.47
2024-04-23T01:25:41.337Z,84.41
2024-04-23T01:26:13.621Z,84.63
2024-04-23T01:26:44.882Z,84.80
2024-04-23T01:27:16.815Z,84.85
2024-04-23T01:27:48.439Z,85.10
2024-04-23T01:28:19.507Z,84.88
2024-04-23T01:28:51.078Z,84.94
2024-04-23T01:29:22.116Z,85.14
2024-04-23T01:29:56.726Z,84.37
2024-04-23T01:30:28.064Z,84.44
2024-04-23T01:30:59.183Z,84.39
2024-04-23T01:31:30.578Z,84.50
2024-04-23T01:32:04.754Z,84.43
2024-04-23T01:32:38.436Z,83.99
2024-04-23T01:33:11.352Z,84.36
2024-04-23T01:33:45.633Z,84.54
2024-04-23T01:34:16.938Z,84.37
2024-04-23T01:34:48.070Z,84.41
2024-04-23T01:35:19.416Z,83.93
2024-04-23T01:35:51.096Z,84.01
2024-04-23T01:36:23.237Z,83.81
2024-04-23T01:36:53.982Z,83.75
2024-04-23T01:37:28.598Z,83.81
2024-04-23T01:38:01.180Z,84.09
2024-04-23T01:38:33.974Z,83.68
2024-04-23T01:39:05.494Z,83.68
2024-04-23T01:39:38.136Z,83.30
2024-04-23T01:40:10.172Z,83.41
2024-04-23T01:40:41.223Z,83.34
2024-04-23T01:41:12.332Z,83.37
2024-04-23T01:41:43.399Z,83.09
2024-04-23T01:42:16.121Z,83.02
2024-04-23T01:42:49.082Z,83.20
2024-04-23T01:43:20.248Z,82.93
2024-04-23T01:43:51.817Z,83.18
2024-04-23T01:44:22.851Z,82.80
2024-04-23T01:44:53.691Z,83.21
2024-04-23T01:45:25.056Z,82.83
2024-04-23T01:45:57.386Z,82.61
2024-04-23T01:46:28.602Z,83.14
2024-04-23T01:46:59.385Z,82.47
2024-04-23T01:47:30.552Z,83.10
2024-04-23T01:48:03.817Z,82.80
2024-04-23T01:48:35.052Z,83.15
2024-04-23T01:49:05.831Z,83.38
2024-04-23T01:49:37.338Z,83.12
2024-04-23T01:50:08.497Z,82.94
2024-04-23T01:50:39.482Z,82.95
2024-04-23T01:51:10.438Z,83.00
2024-04-23T01:51:41.172Z,82.45
2024-04-23T01:52:12.016Z,83.12
2024-04-23T01:52:43.821Z,82.78
2024-04-23T01:53:14.558Z,82.84
2024-04-23T01:53:45.270Z,82.75
2024-04-23T01:54:16.009Z,82.51
2024-04-23T01:54:47.228Z,82.49
2024-04-23T01:55:18.791Z,82.11
2024-04-23T01:55:49.564Z,82.97
2024-04-23T01:56:20.385Z,82.61
2024-04-23T01:56:51.520Z,82.86
2024-04-23T01:57:22.268Z,82.32
2024-04-23T01:57:53.107Z,82.41
2024-04-23T01:58:23.823Z,82.71
2024-04-23T01:58:54.626Z,82.35
2024-04-23T01:59:25.364Z,82.71
2024-04-23T02:00:04.298Z,82.18
2024-04-23T02:00:37.638Z,82.22
2024-04-23T02:01:10.634Z,82.26
2024-04-23T02:01:45.357Z,82.29
2024-04-23T02:02:18.511Z,82.00
2024-04-23T02:02:52.388Z,82.04
2024-04-23T02:03:24.006Z,82.26
2024-04-23T02:03:54.859Z,82.17
2024-04-23T02:04:26.368Z,82.43
2024-04-23T02:04:58.254Z,81.65
2024-04-23T02:05:30.420Z,81.64
2024-04-23T02:06:02.103Z,81.90
2024-04-23T02:06:33.096Z,81.71
2024-04-23T02:07:03.970Z,82.04
2024-04-23T02:07:35.857Z,82.57
2024-04-23T02:08:07.108Z,81.83
2024-04-23T02:08:37.929Z,81.58
2024-04-23T02:09:09.594Z,82.18
2024-04-23T02:09:41.784Z,81.60
2024-04-23T02:10:12.747Z,81.75
2024-04-23T02:10:44.531Z,81.81
2024-04-23T02:11:16.297Z,81.67
2024-04-23T02:11:47.252Z,82.05
2024-04-23T02:12:25.191Z,81.84
2024-04-23T02:12:56.980Z,82.16
2024-04-23T02:13:27.764Z,81.95
2024-04-23T02:13:58.569Z,81.95
2024-04-23T02:14:29.647Z,81.68
2024-04-23T02:15:03.445Z,81.53
2024-04-23T02:15:34.161Z,81.21
2024-04-23T02:16:05.097Z,81.22
2024-04-23T02:16:36.170Z,81.89
2024-04-23T02:17:07.191Z,81.43
2024-04-23T02:17:38.206Z,81.77
2024-04-23T02:18:09.090Z,81.13
2024-04-23T02:18:39.937Z,81.50
2024-04-23T02:19:10.671Z,81.10
2024-04-23T02:19:41.481Z,81.28
2024-04-23T02:20:12.252Z,81.19
2024-04-23T02:20:42.987Z,80.93
2024-04-23T02:21:13.707Z,81.30
2024-04-23T02:21:44.418Z,81.47
2024-04-23T02:22:15.144Z,81.22
2024-04-23T02:22:45.903Z,81.87
2024-04-23T02:23:16.660Z,81.75
2024-04-23T02:23:47.411Z,81.25
2024-04-23T02:24:18.181Z,81.40
2024-04-23T02:24:48.927Z,81.67
2024-04-23T02:25:23.873Z,81.00
2024-04-23T02:25:54.909Z,81.78
2024-04-23T02:26:25.635Z,81.77
2024-04-23T02:26:56.356Z,81.21
2024-04-23T02:27:27.110Z,81.54
2024-04-23T02:27:57.847Z,81.44
2024-04-23T02:28:28.588Z,81.12
2024-04-23T02:28:59.543Z,81.27
2024-04-23T02:29:30.284Z,81.52
2024-04-23T02:30:01.168Z,81.18
2024-04-23T02:30:34.034Z,81.05
2024-04-23T02:31:04.751Z,80.89
2024-04-23T02:31:35.506Z,80.93
2024-04-23T02:32:06.266Z,81.34
2024-04-23T02:32:37.069Z,80.95
2024-04-23T02:33:11.769Z,80.76
2024-04-23T02:33:42.770Z,80.91
2024-04-23T02:34:13.621Z,81.03
2024-04-23T02:34:44.369Z,80.87
2024-04-23T02:35:15.111Z,81.15
2024-04-23T02:35:48.046Z,81.31
2024-04-23T02:36:18.761Z,81.29
2024-04-23T02:36:49.480Z,81.44
2024-04-23T02:37:20.190Z,81.56
2024-04-23T02:37:50.951Z,81.26
2024-04-23T02:38:21.682Z,81.58
2024-04-23T02:38:52.384Z,81.24
2024-04-23T02:39:23.102Z,81.36
2024-04-23T02:39:53.829Z,81.04
2024-04-23T02:40:24.561Z,80.83
2024-04-23T02:40:57.788Z,81.13
2024-04-23T02:41:28.527Z,80.83
2024-04-23T02:41:59.258Z,80.51
2024-04-23T02:42:30.455Z,80.55
2024-04-23T02:43:01.157Z,80.56
2024-04-23T02:43:31.885Z,81.09
2024-04-23T02:44:06.741Z,80.56
2024-04-23T02:44:37.490Z,81.35
2024-04-23T02:45:08.533Z,80.69
2024-04-23T02:45:39.257Z,80.37
2024-04-23T02:46:09.960Z,81.01
2024-04-23T02:46:41.151Z,80.62
2024-04-23T02:47:11.922Z,81.27
2024-04-23T02:47:42.856Z,80.89
2024-04-23T02:48:13.687Z,81.23
2024-04-23T02:48:44.454Z,80.67
2024-04-23T02:49:15.184Z,80.57
2024-04-23T02:49:45.941Z,80.45
2024-04-23T02:50:16.681Z,80.63
2024-04-23T02:50:47.404Z,80.10
2024-04-23T02:51:18.117Z,79.92
2024-04-23T02:51:49.702Z,79.91
2024-04-23T02:52:20.418Z,80.17
2024-04-23T02:52:51.164Z,80.66
2024-04-23T02:53:21.911Z,80.57
2024-04-23T02:53:52.678Z,79.82
2024-04-23T02:54:23.428Z,80.31
2024-04-23T02:54:54.171Z,79.65
2024-04-23T02:55:24.896Z,79.73
2024-04-23T02:55:55.666Z,80.05
2024-04-23T02:56:26.521Z,80.02
2024-04-23T02:56:57.242Z,79.83
2024-04-23T02:57:27.999Z,79.67
2024-04-23T02:57:58.709Z,80.04
2024-04-23T02:58:29.450Z,80.43
2024-04-23T02:59:00.241Z,79.91
2024-04-23T02:59:31.002Z,80.12
2024-04-23T03:00:01.730Z,79.90
2024-04-23T03:00:32.482Z,79.83
2024-04-23T03:01:03.268Z,80.24
2024-04-23T03:01:34.016Z,80.11
2024-04-23T03:02:07.002Z,79.78
2024-04-23T03:02:37.856Z,79.83
2024-04-23T03:03:08.730Z,79.84
2024-04-23T03:03:40.538Z,79.69
2024-04-23T03:04:11.300Z,79.35
2024-04-23T03:04:42.515Z,79.64
2024-04-23T03:05:13.269Z,79.82
2024-04-23T03:05:43.975Z,79.92
2024-04-23T03:06:14.703Z,79.60
2024-04-23T03:06:45.415Z,79.12
2024-04-23T03:07:16.138Z,79.75
2024-04-23T03:07:46.908Z,79.39
2024-04-23T03:08:17.654Z,79.29
2024-04-23T03:08:49.633Z,79.09
2024-04-23T03:09:20.360Z,79.32
2024-04-23T03:09:51.101Z,79.89
2024-04-23T03:10:21.828Z,79.44
2024-04-23T03:10:52.574Z,79.43
2024-04-23T03:11:23.688Z,78.95
2024-04-23T03:11:55.241Z,79.27
2024-04-23T03:12:25.952Z,79.13
2024-04-23T03:12:56.667Z,79.57
2024-04-23T03:13:27.492Z,79.59
2024-04-23T03:13:58.357Z,79.28
2024-04-23T03:14:29.198Z,79.16
2024-04-23T03:15:02.947Z,79.31
2024-04-23T03:15:33.663Z,78.93
2024-04-23T03:16:07.703Z,79.31
2024-04-23T03:16:40.137Z,78.65
2024-04-23T03:17:11.024Z,79.27
2024-04-23T03:17:42.134Z,79.24
2024-04-23T03:18:13.136Z,79.45
2024-04-23T03:18:43.971Z,78.81
2024-04-23T03:19:14.721Z,79.92
2024-04-23T03:19:45.548Z,79.50
2024-04-23T03:20:17.319Z,79.65
2024-04-23T03:20:48.044Z,79.93
2024-04-23T03:21:18.756Z,79.36
2024-04-23T03:21:58.319Z,79.90
2024-04-23T03:22:29.075Z,79.40
2024-04-23T03:22:59.827Z,79.73
2024-04-23T03:23:30.542Z,79.71
2024-04-23T03:24:01.256Z,79.58
2024-04-23T03:24:34.248Z,79.47
2024-04-23T03:25:05.411Z,80.22
2024-04-23T03:25:38.718Z,80.07
2024-04-23T03:26:10.204Z,80.34
2024-04-23T03:26:40.945Z,79.53
2024-04-23T03:27:11.690Z,79.56
2024-04-23T03:27:42.412Z,80.00
2024-04-23T03:28:13.130Z,80.00
2024-04-23T03:28:43.873Z,80.12
2024-04-23T03:29:14.634Z,79.74
2024-04-23T03:29:45.375Z,80.02
2024-04-23T03:30:16.094Z,79.59
2024-04-23T03:30:46.838Z,80.43
2024-04-23T03:31:17.544Z,79.71
2024-04-23T03:32:30.375Z,80.11
2024-04-23T03:33:01.282Z,79.88
2024-04-23T03:33:32.115Z,80.48
2024-04-23T03:34:02.843Z,80.57
2024-04-23T03:34:33.737Z,79.80
2024-04-23T03:35:04.891Z,80.16
2024-04-23T03:35:35.722Z,80.60
2024-04-23T03:36:07.072Z,80.24
2024-04-23T03:36:37.777Z,80.39
2024-04-23T03:37:08.563Z,80.29
2024-04-23T03:37:39.309Z,80.52
2024-04-23T03:38:10.026Z,81.01
2024-04-23T03:38:40.831Z,80.88
2024-04-23T03:39:11.541Z,80.55
2024-04-23T03:39:42.243Z,80.74
2024-04-23T03:40:12.994Z,80.29
2024-04-23T03:40:43.769Z,80.67
2024-04-23T03:41:14.506Z,80.00
2024-04-23T03:41:57.847Z,80.24
2024-04-23T03:42:28.542Z,80.50
2024-04-23T03:42:59.261Z,81.01
2024-04-23T03:43:30.121Z,80.48
2024-04-23T03:44:01.373Z,80.15
2024-04-23T03:44:33.656Z,80.39
2024-04-23T03:45:06.460Z,80.71
2024-04-23T03:45:37.171Z,80.78
2024-04-23T03:46:07.891Z,80.37
2024-04-23T03:46:38.647Z,80.50
2024-04-23T03:47:09.539Z,80.04
2024-04-23T03:47:40.504Z,80.29
2024-04-23T03:48:11.530Z,80.47
2024-04-23T03:48:42.312Z,80.26
2024-04-23T03:49:13.027Z,80.48
2024-04-23T03:49:44.674Z,80.69
2024-04-23T03:50:15.429Z,80.66
2024-04-23T03:50:46.145Z,80.69
2024-04-23T03:51:16.854Z,80.50
2024-04-23T03:51:47.695Z,80.78
2024-04-23T03:52:18.400Z,80.31
2024-04-23T03:52:49.147Z,80.81
2024-04-23T03:53:19.887Z,80.99
2024-04-23T03:53:50.619Z,80.73
2024-04-23T03:54:21.347Z,80.94
2024-04-23T03:54:52.662Z,81.14
2024-04-23T03:55:23.382Z,81.41
2024-04-23T03:55:54.132Z,81.64
2024-04-23T03:56:24.879Z,81.36
2024-04-23T03:56:55.595Z,81.13
2024-04-23T03:57:26.327Z,81.19
2024-04-23T03:57:57.954Z,81.30
2024-04-23T03:58:28.706Z,80.93
2024-04-23T03:58:59.471Z,81.12
2024-04-23T03:59:30.284Z,80.82
2024-04-23T04:00:01.114Z,81.35
2024-04-23T04:00:31.872Z,80.98
2024-04-23T04:01:02.630Z,80.96
2024-04-23T04:01:33.462Z,81.15
2024-04-23T04:02:22.924Z,80.88
2024-04-23T04:03:12.259Z,81.19
2024-04-23T04:04:01.413Z,81.22
2024-04-23T04:04:50.695Z,81.44
2024-04-23T04:05:39.997Z,81.35
2024-04-23T04:06:11.878Z,81.29
2024-04-23T04:06:42.590Z,81.63
2024-04-23T04:07:13.301Z,81.67
2024-04-23T04:07:44.049Z,81.42
2024-04-23T04:08:14.767Z,81.76
2024-04-23T04:08:45.468Z,81.80
2024-04-23T04:09:16.185Z,81.38
2024-04-23T04:09:46.906Z,81.33
2024-04-23T04:10:17.618Z,81.24
2024-04-23T04:10:48.426Z,81.62
2024-04-23T04:11:22.507Z,81.50
2024-04-23T04:11:56.847Z,81.79
2024-04-23T04:12:27.599Z,81.67
2024-04-23T04:13:12.294Z,81.56
2024-04-23T04:13:48.591Z,81.78
2024-04-23T04:14:19.357Z,81.30
2024-04-23T04:14:50.105Z,81.21
2024-04-23T04:15:20.817Z,81.45
2024-04-23T04:15:51.914Z,80.79
2024-04-23T04:16:23.527Z,80.98
2024-04-23T04:16:54.294Z,80.86
2024-04-23T04:17:25.110Z,81.02
2024-04-23T04:17:56.003Z,81.20
2024-04-23T04:18:26.801Z,81.11
2024-04-23T04:18:57.533Z,81.14
2024-04-23T04:19:29.387Z,80.74
2024-04-23T04:20:00.321Z,81.22
2024-04-23T04:20:31.157Z,81.04
2024-04-23T04:21:02.372Z,81.69
2024-04-23T04:21:33.081Z,80.82
2024-04-23T04:22:03.788Z,80.99
2024-04-23T04:22:34.537Z,80.92
2024-04-23T04:23:05.562Z,81.19
2024-04-23T04:23:36.420Z,81.20
2024-04-23T04:24:07.309Z,81.82
2024-04-23T04:24:38.030Z,81.54
2024-04-23T04:25:08.833Z,81.46
2024-04-23T04:25:39.564Z,81.32
2024-04-23T04:26:12.160Z,81.18
2024-04-23T04:26:42.911Z,81.17
2024-04-23T04:27:13.824Z,81.18
2024-04-23T04:27:44.531Z,81.60
2024-04-23T04:28:17.923Z,80.60
2024-04-23T04:28:48.702Z,81.03
2024-04-23T04:29:19.451Z,80.92
2024-04-23T04:29:50.187Z,80.81
2024-04-23T04:30:20.970Z,80.99
2024-04-23T04:30:51.697Z,80.91
2024-04-23T04:31:22.428Z,80.93
2024-04-23T04:31:53.190Z,81.20
2024-04-23T04:32:23.913Z,81.33
2024-04-23T04:32:54.708Z,81.84
2024-04-23T04:33:25.644Z,81.57
2024-04-23T04:33:56.422Z,81.22
2024-04-23T04:34:27.280Z,80.99
2024-04-23T04:34:58.127Z,81.28
2024-04-23T04:35:28.920Z,81.23
2024-04-23T04:35:59.647Z,80.79
2024-04-23T04:36:30.371Z,81.19
2024-04-23T04:37:01.119Z,81.41
2024-04-23T04:37:35.537Z,81.21
2024-04-23T04:38:06.314Z,80.83
2024-04-23T04:38:37.083Z,81.11
2024-04-23T04:39:07.784Z,81.33
2024-04-23T04:39:38.669Z,81.20
2024-04-23T04:40:09.759Z,81.32
2024-04-23T04:40:40.688Z,81.45
2024-04-23T04:41:11.520Z,81.37
2024-04-23T04:41:42.271Z,81.37
2024-04-23T04:42:13.003Z,80.66
2024-04-23T04:42:43.735Z,81.06
2024-04-23T04:43:14.455Z,81.26
2024-04-23T04:43:45.205Z,81.11
2024-04-23T04:44:15.944Z,81.22
2024-04-23T04:44:46.654Z,81.09
2024-04-23T04:45:17.372Z,80.75
2024-04-23T04:45:48.077Z,80.71
2024-04-23T04:46:20.051Z,81.44
2024-04-23T04:46:50.843Z,81.56
2024-04-23T04:47:21.657Z,81.03
2024-04-23T04:47:52.582Z,81.34
2024-04-23T04:48:23.549Z,81.59
2024-04-23T04:48:54.325Z,81.24
2024-04-23T04:49:25.050Z,81.75
2024-04-23T04:49:55.898Z,81.44
2024-04-23T04:50:26.626Z,81.29
2024-04-23T04:50:57.425Z,81.01
2024-04-23T04:51:28.129Z,80.98
2024-04-23T04:51:58.864Z,81.23
2024-04-23T04:52:29.640Z,81.28
2024-04-23T04:53:00.585Z,81.49
2024-04-23T04:53:31.386Z,81.32
2024-04-23T04:54:02.166Z,81.46
2024-04-23T04:54:32.916Z,80.88
2024-04-23T04:55:03.839Z,81.52
2024-04-23T04:55:34.921Z,80.61
2024-04-23T04:56:06.093Z,80.87
2024-04-23T04:56:36.826Z,81.25
2024-04-23T04:57:07.540Z,80.79
2024-04-23T04:57:38.273Z,81.28
2024-04-23T04:58:09.001Z,80.95
2024-04-23T04:58:39.780Z,81.12
2024-04-23T04:59:10.495Z,80.62
2024-04-23T04:59:41.228Z,80.67
2024-04-23T05:00:12.338Z,80.47
2024-04-23T05:00:44.633Z,81.05
2024-04-23T05:01:16.098Z,81.15
2024-04-23T05:01:46.932Z,80.82
2024-04-23T05:02:17.815Z,80.52
2024-04-23T05:02:48.578Z,80.22
2024-04-23T05:03:19.340Z,79.76
2024-04-23T05:03:50.080Z,80.08
2024-04-23T05:04:20.896Z,80.04
2024-04-23T05:04:52.695Z,80.39
2024-04-23T05:05:23.429Z,80.44
2024-04-23T05:05:54.184Z,80.29
2024-04-23T05:06:26.183Z,80.37
2024-04-23T05:06:57.023Z,80.31
2024-04-23T05:07:27.782Z,80.03
2024-04-23T05:07:58.599Z,80.42
2024-04-23T05:08:29.405Z,79.85
2024-04-23T05:09:00.135Z,80.25
2024-04-23T05:09:30.959Z,80.40
2024-04-23T05:10:01.678Z,79.83
2024-04-23T05:10:32.868Z,80.08
2024-04-23T05:11:03.837Z,80.17
2024-04-23T05:11:42.588Z,80.17
2024-04-23T05:12:20.696Z,80.15
2024-04-23T05:12:54.234Z,80.05
2024-04-23T05:13:27.231Z,80.00
2024-04-23T05:14:00.664Z,80.02
2024-04-23T05:14:31.487Z,80.12
2024-04-23T05:15:02.991Z,79.78
2024-04-23T05:15:33.737Z,79.94
2024-04-23T05:16:04.818Z,80.12
2024-04-23T05:16:35.590Z,79.48
2024-04-23T05:17:06.375Z,80.07
2024-04-23T05:17:37.208Z,79.54
2024-04-23T05:18:08.064Z,79.65
2024-04-23T05:18:38.970Z,79.65
2024-04-23T05:19:10.268Z,79.24
2024-04-23T05:19:42.410Z,79.64
2024-04-23T05:20:13.139Z,79.59
2024-04-23T05:20:43.923Z,79.73
2024-04-23T05:21:14.661Z,80.13
2024-04-23T05:21:45.428Z,79.71
2024-04-23T05:22:16.177Z,79.53
2024-04-23T05:22:46.958Z,79.65
2024-04-23T05:23:17.736Z,79.97
2024-04-23T05:23:48.442Z,79.33
2024-04-23T05:24:19.163Z,79.53
2024-04-23T05:24:50.071Z,78.91
2024-04-23T05:25:20.820Z,79.02
2024-04-23T05:25:51.547Z,79.07
2024-04-23T05:26:23.304Z,78.98
2024-04-23T05:26:54.017Z,78.93
2024-04-23T05:27:24.760Z,78.99
2024-04-23T05:27:55.504Z,78.68
2024-04-23T05:28:26.216Z,78.95
2024-04-23T05:28:57.971Z,78.84
2024-04-23T05:29:28.693Z,78.83
2024-04-23T05:30:03.139Z,79.35
2024-04-23T05:30:52.686Z,79.09
2024-04-23T05:31:42.060Z,78.73
2024-04-23T05:32:31.196Z,78.68
2024-04-23T05:33:02.085Z,78.76
2024-04-23T05:33:33.065Z,78.47
2024-04-23T05:34:03.825Z,79.01
2024-04-23T05:34:36.076Z,78.73
2024-04-23T05:35:07.213Z,78.61
2024-04-23T05:35:38.024Z,78.41
2024-04-23T05:36:09.123Z,78.64
2024-04-23T05:36:39.848Z,78.34
2024-04-23T05:37:10.572Z,78.40
2024-04-23T05:37:44.063Z,78.10
2024-04-23T05:38:17.535Z,77.88
2024-04-23T05:38:49.548Z,78.10
2024-04-23T05:39:20.286Z,78.21
2024-04-23T05:39:50.997Z,77.72
2024-04-23T05:40:21.725Z,77.83
2024-04-23T05:40:52.482Z,77.93
2024-04-23T05:41:23.253Z,77.15
2024-04-23T05:41:53.990Z,77.72
2024-04-23T05:42:24.758Z,77.43
2024-04-23T05:42:55.473Z,77.21
2024-04-23T05:43:26.192Z,77.20
2024-04-23T05:43:59.024Z,77.53
2024-04-23T05:44:29.773Z,77.28
2024-04-23T05:45:00.647Z,77.43
2024-04-23T05:45:31.398Z,77.15
2024-04-23T05:46:02.133Z,77.41
2024-04-23T05:46:32.900Z,77.56
2024-04-23T05:47:03.692Z,77.38
2024-04-23T05:48:11.631Z,77.46
2024-04-23T05:49:19.883Z,77.20
2024-04-23T05:50:29.113Z,76.87
2024-04-23T05:51:37.085Z,76.87
2024-04-23T05:52:44.734Z,77.08
2024-04-23T05:53:52.555Z,76.78
2024-04-23T05:55:00.516Z,76.76
2024-04-23T05:55:38.847Z,76.51
2024-04-23T05:56:09.723Z,76.43
2024-04-23T05:56:40.595Z,76.48
2024-04-23T05:57:11.377Z,76.13
2024-04-23T05:57:42.117Z,76.41
2024-04-23T05:58:12.852Z,76.01
2024-04-23T05:58:43.577Z,76.19
2024-04-23T05:59:14.311Z,76.24
2024-04-23T05:59:51.036Z,75.81
2024-04-23T06:00:22.366Z,76.42
2024-04-23T06:00:54.742Z,76.01
2024-04-23T06:01:25.501Z,75.86
2024-04-23T06:01:56.278Z,75.98
2024-04-23T06:02:27.002Z,75.82
2024-04-23T06:02:58.044Z,76.11
2024-04-23T06:03:28.836Z,75.91
2024-04-23T06:03:59.617Z,75.76
2024-04-23T06:04:30.372Z,75.82
2024-04-23T06:05:01.343Z,76.30
2024-04-23T06:05:32.222Z,76.12
2024-04-23T06:06:03.007Z,75.64
2024-04-23T06:06:33.721Z,76.08
2024-04-23T06:07:04.508Z,76.08
2024-04-23T06:07:35.233Z,75.23
2024-04-23T06:08:06.512Z,75.58
2024-04-23T06:08:37.297Z,75.73
2024-04-23T06:09:08.051Z,75.56
2024-04-23T06:09:38.777Z,75.53
2024-04-23T06:10:09.817Z,75.50
2024-04-23T06:10:40.662Z,75.31
2024-04-23T06:11:11.578Z,75.37
2024-04-23T06:11:42.443Z,75.56
2024-04-23T06:12:13.221Z,75.35
2024-04-23T06:12:46.812Z,75.59
2024-04-23T06:13:19.552Z,75.54
2024-04-23T06:14:05.269Z,75.15
2024-04-23T06:14:41.099Z,74.89
2024-04-23T06:15:11.855Z,74.91
2024-04-23T06:15:43.004Z,74.68
2024-04-23T06:16:13.722Z,75.17
2024-04-23T06:16:44.480Z,75.00
2024-04-23T06:17:31.944Z,75.67
2024-04-23T06:18:12.356Z,75.05
2024-04-23T06:18:43.324Z,74.96
2024-04-23T06:19:14.268Z,74.38
2024-04-23T06:19:50.027Z,74.62
2024-04-23T06:20:20.785Z,74.57
2024-04-23T06:20:52.239Z,75.03
2024-04-23T06:21:22.949Z,74.54
2024-04-23T06:21:53.857Z,74.29
2024-04-23T06:22:26.726Z,74.60
2024-04-23T06:22:57.521Z,73.94
2024-04-23T06:23:28.299Z,73.83
2024-04-23T06:23:59.118Z,73.92
2024-04-23T06:24:29.986Z,74.49
2024-04-23T06:25:00.687Z,74.39
2024-04-23T06:25:31.469Z,73.97
2024-04-23T06:26:05.557Z,73.93
2024-04-23T06:26:37.949Z,74.66
2024-04-23T06:27:08.684Z,74.29
2024-04-23T06:27:39.405Z,74.66
2024-04-23T06:28:10.110Z,74.60
2024-04-23T06:28:41.338Z,74.17
2024-04-23T06:29:12.076Z,73.95
2024-04-23T06:29:45.539Z,73.54
2024-04-23T06:30:16.293Z,73.86
2024-04-23T06:30:47.073Z,72.50
2024-04-23T06:31:17.780Z,72.67
2024-04-23T06:31:48.677Z,72.70
2024-04-23T06:32:21.211Z,72.88
2024-04-23T06:32:52.089Z,72.66
2024-04-23T06:33:22.966Z,72.29
2024-04-23T06:33:53.731Z,72.32
2024-04-23T06:34:24.451Z,72.39
2024-04-23T06:34:55.241Z,72.30
2024-04-23T06:35:28.816Z,72.93
2024-04-23T06:35:59.523Z,73.28
2024-04-23T06:36:30.237Z,73.28
2024-04-23T06:37:01.221Z,73.12
2024-04-23T06:37:36.047Z,73.09
2024-04-23T06:38:06.826Z,73.01
2024-04-23T06:38:37.565Z,73.02
2024-04-23T06:39:08.978Z,73.44
2024-04-23T06:39:40.972Z,73.65
2024-04-23T06:40:16.969Z,73.83
2024-04-23T06:40:50.810Z,73.01
2024-04-23T06:41:21.557Z,72.60
2024-04-23T06:41:58.011Z,72.52
2024-04-23T06:42:28.840Z,72.29
2024-04-23T06:43:02.752Z,72.74
2024-04-23T06:43:33.555Z,71.70
2024-04-23T06:44:04.393Z,72.00
2024-04-23T06:44:35.193Z,71.96
2024-04-23T06:45:06.314Z,72.33
2024-04-23T06:45:37.012Z,72.26
2024-04-23T06:46:07.754Z,72.03
2024-04-23T06:46:38.622Z,72.36
2024-04-23T06:47:09.346Z,71.97
2024-04-23T06:47:42.907Z,71.71
2024-04-23T06:48:15.780Z,71.16
2024-04-23T06:48:46.539Z,71.08
2024-04-23T06:49:17.292Z,71.87
2024-04-23T06:49:48.069Z,71.95
2024-04-23T06:50:18.843Z,71.69
2024-04-23T06:50:49.595Z,71.48
2024-04-23T06:51:20.309Z,71.41
2024-04-23T06:51:51.683Z,71.43
2024-04-23T06:52:22.398Z,71.58
2024-04-23T06:52:54.503Z,71.70
2024-04-23T06:53:26.034Z,71.38
2024-04-23T06:53:56.755Z,71.06
2024-04-23T06:54:27.461Z,71.08